Time;durP1;ratioP1;P1;durP2;ratioP2;P2;SDS_P1;SDS_P2;PMS_P1;PMS_P2;Temp;Humidity;BMP_temperature;BMP_pressure;BME280_temperature;BME280_humidity;BME280_pressure;Samples;Min_cycle;Max_cycle;Signal;HPM_P1;HPM_P2
2021/12/28 07:32:08;;;;;;;33.67;15.60;;;5.00;99.90;;;;;;5112653;23;20065;-88
2021/12/28 07:34:34;;;;;;;40.43;16.37;;;5.00;99.90;;;;;;4861902;29;20049;-88
2021/12/28 07:37:26;;;;;;;33.37;14.60;;;4.90;99.90;;;;;;4846899;29;20052;-90
2021/12/28 07:39:53;;;;;;;39.37;16.50;;;5.40;99.90;;;;;;4860047;23;20120;-90
2021/12/28 07:42:19;;;;;;;34.90;15.80;;;5.30;99.90;;;;;;4846737;29;20144;-89
2021/12/28 07:44:49;;;;;;;36.20;15.80;;;4.80;99.90;;;;;;4848050;29;20041;-90
2021/12/28 07:47:29;;;;;;;31.10;15.33;;;4.80;99.90;;;;;;4847201;29;20064;-88
2021/12/28 07:50:09;;;;;;;27.77;14.37;;;6.20;99.90;;;;;;4845310;29;20574;-90
2021/12/28 07:52:38;;;;;;;33.17;14.70;;;4.80;99.90;;;;;;4847472;29;20517;-90
2021/12/28 07:55:07;;;;;;;31.20;13.83;;;5.90;99.90;;;;;;4847402;29;20060;-90
2021/12/28 07:57:34;;;;;;;30.83;14.13;;;5.10;99.90;;;;;;4862473;29;20150;-89
2021/12/28 08:00:01;;;;;;;32.20;14.33;;;5.00;99.90;;;;;;4854168;23;20056;-91
2021/12/28 08:02:26;;;;;;;28.80;14.20;;;4.80;99.90;;;;;;4853906;23;20510;-90
2021/12/28 08:05:06;;;;;;;30.07;13.33;;;5.70;99.90;;;;;;4845734;29;20049;-90
2021/12/28 08:07:38;;;;;;;33.20;12.87;;;5.00;99.90;;;;;;4847422;29;20065;-90
2021/12/28 08:10:04;;;;;;;30.37;13.53;;;4.90;99.90;;;;;;4851795;29;20077;-90
2021/12/28 08:12:30;;;;;;;29.30;12.90;;;5.10;99.90;;;;;;4854989;23;20064;-90
2021/12/28 08:15:14;;;;;;;31.70;12.67;;;4.90;99.90;;;;;;4856213;29;20085;-89
2021/12/28 08:17:40;;;;;;;30.85;12.80;;;4.50;99.90;;;;;;4943764;23;20079;-89
2021/12/28 08:22:32;;;;;;;26.90;12.00;;;5.20;99.90;;;;;;4878759;23;20058;-89
2021/12/28 08:24:59;;;;;;;23.00;11.23;;;5.00;99.90;;;;;;4845929;29;20049;-90
2021/12/28 08:27:25;;;;;;;27.90;11.43;;;4.40;99.90;;;;;;4846844;29;20054;-90
2021/12/28 08:30:20;;;;;;;28.90;11.83;;;5.40;99.90;;;;;;4847077;29;20420;-92
2021/12/28 08:35:56;;;;;;;25.90;11.70;;;5.30;99.90;;;;;;4851690;29;20053;-93
2021/12/28 08:38:23;;;;;;;26.63;11.20;;;5.00;99.90;;;;;;4849206;29;20057;-92
2021/12/28 08:40:50;;;;;;;25.30;11.40;;;6.60;99.90;;;;;;4852340;29;20056;-92
2021/12/28 08:45:47;;;;;;;25.70;10.43;;;5.30;99.90;;;;;;4873692;23;20081;-92
2021/12/28 08:48:37;;;;;;;23.70;10.60;;;5.30;99.90;;;;;;4853350;23;20049;-92
2021/12/28 08:54:41;;;;;;;25.97;10.20;;;4.90;99.90;;;;;;4780073;23;20056;-87
2021/12/28 14:51:35;;;;;;;30.90;18.23;;;7.70;99.90;;;;;;4969683;23;20497;-92
2021/12/28 14:54:33;;;;;;;20.97;12.63;;;7.10;99.90;;;;;;4845779;29;20057;-94
2021/12/28 14:57:03;;;;;;;17.80;9.50;;;8.10;99.90;;;;;;4837038;23;20404;-94
2021/12/28 14:59:29;;;;;;;18.27;10.07;;;7.80;99.90;;;;;;4849865;29;20053;-95
2021/12/28 15:01:57;;;;;;;13.53;5.00;;;7.60;99.90;;;;;;4846378;29;20044;-92
2021/12/28 15:05:02;;;;;;;13.17;5.80;;;8.30;99.90;;;;;;4853935;29;20491;-96
2021/12/28 15:07:29;;;;;;;17.20;6.07;;;8.10;99.90;;;;;;4855534;29;20052;-90
2021/12/28 15:10:04;;;;;;;18.77;8.40;;;7.70;99.90;;;;;;4845728;29;20128;-91
2021/12/28 15:13:26;;;;;;;15.03;4.23;;;8.80;99.90;;;;;;4847177;29;20077;-92
2021/12/28 15:27:03;;;;;;;19.40;4.70;;;7.40;99.90;;;;;;4868244;23;20053;-94
2021/12/28 15:33:30;;;;;;;15.53;4.50;;;7.60;99.90;;;;;;4862224;29;20075;-93
2021/12/28 16:00:43;;;;;;;;;;;;;;;;;;;;;
2021/12/28 16:29:30;;;;;;;;;;;;;;;;;;;;;
2021/12/28 16:39:56;;;;;;;;;;;;;;;;;;;;;
2021/12/28 16:45:43;;;;;;;30.43;8.40;;;7.40;99.90;;;;;;4828873;29;20123;-88
2021/12/28 16:48:17;;;;;;;28.90;11.33;;;6.70;99.90;;;;;;4824453;29;20062;-93
2021/12/28 16:51:15;;;;;;;30.30;12.23;;;8.00;99.90;;;;;;4826536;29;20152;-95
2021/12/28 16:54:19;;;;;;;24.83;11.50;;;6.60;99.90;;;;;;5132433;23;20143;-96
2021/12/28 18:16:45;;;;;;;27.93;5.67;;;5.90;99.90;;;;;;5221740;23;20057;-87
2021/12/28 19:50:36;;;;;;;46.03;12.87;;;5.20;99.90;;;;;;4840816;29;20174;-95
2021/12/28 23:02:24;;;;;;;182.67;62.83;;;6.90;99.90;;;;;;4859647;29;20563;-94
2021/12/28 23:05:47;;;;;;;391.90;123.20;;;7.90;99.90;;;;;;4856629;29;20144;-94
2021/12/28 23:11:14;;;;;;;248.77;62.57;;;5.70;99.90;;;;;;4843977;29;20060;-94
2021/12/28 23:19:59;;;;;;;292.97;61.87;;;6.40;99.90;;;;;;5080065;23;20035;-94
2021/12/28 23:23:46;;;;;;;161.88;42.47;;;6.50;99.90;;;;;;4860977;29;20048;-94
2021/12/28 23:39:35;;;;;;;107.10;29.13;;;6.60;99.90;;;;;;5115851;23;20056;31
2021/12/28 23:44:58;;;;;;;88.30;25.97;;;6.70;99.90;;;;;;4842602;29;20050;-94
2021/12/28 23:47:27;;;;;;;90.37;23.70;;;6.90;99.90;;;;;;4825396;29;20057;-93
2021/12/28 23:49:53;;;;;;;84.30;22.60;;;7.50;99.90;;;;;;4826249;29;20122;-93
2021/12/28 23:52:28;;;;;;;79.73;21.80;;;6.60;99.90;;;;;;4843504;23;20049;-94
2021/12/28 23:55:00;;;;;;;82.77;20.90;;;6.70;99.90;;;;;;4823901;29;20493;-92
2021/12/28 23:57:32;;;;;;;54.47;16.93;;;7.10;99.90;;;;;;4826614;29;20054;-94
